sensor_id;sensor_type;location;lat;lon;timestamp;pressure;altitude;pressure_sealevel;temperature;humidity
76728;BME280;65652;53.132;18.026;2023-04-01T00:00:59;99131.48;;;11.76;76.46
76728;BME280;65652;53.132;18.026;2023-04-01T00:03:26;99130.86;;;11.76;76.95
76728;BME280;65652;53.132;18.026;2023-04-01T00:05:57;99129.81;;;11.74;77.00
76728;BME280;65652;53.132;18.026;2023-04-01T00:08:24;99132.84;;;11.72;76.55
76728;BME280;65652;53.132;18.026;2023-04-01T00:10:51;99127.77;;;11.69;76.73
76728;BME280;65652;53.132;18.026;2023-04-01T00:13:17;99131.05;;;11.65;76.75
76728;BME280;65652;53.132;18.026;2023-04-01T00:15:44;99128.45;;;11.62;76.94
76728;BME280;65652;53.132;18.026;2023-04-01T00:18:11;99124.21;;;11.60;76.88
76728;BME280;65652;53.132;18.026;2023-04-01T00:20:37;99123.84;;;11.58;77.17
76728;BME280;65652;53.132;18.026;2023-04-01T00:23:04;99124.11;;;11.55;77.06
76728;BME280;65652;53.132;18.026;2023-04-01T00:25:31;99123.95;;;11.53;76.91
76728;BME280;65652;53.132;18.026;2023-04-01T00:27:57;99118.32;;;11.51;77.28
76728;BME280;65652;53.132;18.026;2023-04-01T00:30:23;99122.99;;;11.50;77.01
76728;BME280;65652;53.132;18.026;2023-04-01T00:32:53;99117.71;;;11.49;77.33
76728;BME280;65652;53.132;18.026;2023-04-01T00:35:19;99116.98;;;11.47;77.28
76728;BME280;65652;53.132;18.026;2023-04-01T00:37:46;99119.95;;;11.46;77.30
76728;BME280;65652;53.132;18.026;2023-04-01T00:40:25;99119.57;;;11.43;77.45
76728;BME280;65652;53.132;18.026;2023-04-01T00:42:52;99115.01;;;11.41;77.40
76728;BME280;65652;53.132;18.026;2023-04-01T00:45:32;99117.98;;;11.42;77.37
76728;BME280;65652;53.132;18.026;2023-04-01T00:48:04;99117.15;;;11.38;77.61
76728;BME280;65652;53.132;18.026;2023-04-01T00:50:32;99119.02;;;11.36;77.39
76728;BME280;65652;53.132;18.026;2023-04-01T00:53:00;99117.93;;;11.36;77.74
76728;BME280;65652;53.132;18.026;2023-04-01T00:55:29;99117.02;;;11.36;77.50
76728;BME280;65652;53.132;18.026;2023-04-01T00:57:57;99119.26;;;11.37;77.56
76728;BME280;65652;53.132;18.026;2023-04-01T01:00:24;99113.82;;;11.37;77.69
76728;BME280;65652;53.132;18.026;2023-04-01T01:02:52;99116.36;;;11.37;77.62
76728;BME280;65652;53.132;18.026;2023-04-01T01:05:23;99109.59;;;11.38;77.68
76728;BME280;65652;53.132;18.026;2023-04-01T01:08:03;99111.73;;;11.39;77.73
76728;BME280;65652;53.132;18.026;2023-04-01T01:10:38;99108.00;;;11.38;77.82
76728;BME280;65652;53.132;18.026;2023-04-01T01:13:23;99105.58;;;11.34;77.68
76728;BME280;65652;53.132;18.026;2023-04-01T01:16:25;99106.27;;;11.32;77.71
76728;BME280;65652;53.132;18.026;2023-04-01T01:27:09;99106.05;;;11.25;77.86
76728;BME280;65652;53.132;18.026;2023-04-01T01:29:45;99110.70;;;11.21;77.93
76728;BME280;65652;53.132;18.026;2023-04-01T01:35:38;99115.97;;;11.11;77.80
76728;BME280;65652;53.132;18.026;2023-04-01T01:38:32;99113.29;;;11.03;78.31
76728;BME280;65652;53.132;18.026;2023-04-01T01:41:03;99115.75;;;10.97;77.98
76728;BME280;65652;53.132;18.026;2023-04-01T01:43:35;99112.50;;;10.92;78.15
76728;BME280;65652;53.132;18.026;2023-04-01T01:46:07;99114.54;;;10.86;77.94
76728;BME280;65652;53.132;18.026;2023-04-01T01:48:36;99113.88;;;10.81;78.27
76728;BME280;65652;53.132;18.026;2023-04-01T01:51:05;99115.02;;;10.78;78.32
76728;BME280;65652;53.132;18.026;2023-04-01T01:53:31;99114.36;;;10.72;78.37
76728;BME280;65652;53.132;18.026;2023-04-01T01:55:58;99110.46;;;10.65;78.43
76728;BME280;65652;53.132;18.026;2023-04-01T01:58:32;99112.67;;;10.60;78.22
76728;BME280;65652;53.132;18.026;2023-04-01T02:01:02;99115.46;;;10.55;78.41
76728;BME280;65652;53.132;18.026;2023-04-01T02:03:33;99113.95;;;10.51;78.32
76728;BME280;65652;53.132;18.026;2023-04-01T02:06:01;99114.50;;;10.50;78.30
76728;BME280;65652;53.132;18.026;2023-04-01T02:11:12;99118.52;;;10.44;78.61
76728;BME280;65652;53.132;18.026;2023-04-01T02:14:11;99116.48;;;10.39;78.64
76728;BME280;65652;53.132;18.026;2023-04-01T02:16:49;99113.80;;;10.35;78.62
76728;BME280;65652;53.132;18.026;2023-04-01T02:19:17;99113.68;;;10.33;78.74
76728;BME280;65652;53.132;18.026;2023-04-01T02:21:55;99115.71;;;10.28;78.82
76728;BME280;65652;53.132;18.026;2023-04-01T02:24:25;99116.52;;;10.26;78.97
76728;BME280;65652;53.132;18.026;2023-04-01T02:26:52;99113.38;;;10.24;79.17
76728;BME280;65652;53.132;18.026;2023-04-01T02:29:20;99114.39;;;10.22;79.14
76728;BME280;65652;53.132;18.026;2023-04-01T02:31:49;99112.42;;;10.22;79.11
76728;BME280;65652;53.132;18.026;2023-04-01T02:34:16;99117.25;;;10.21;78.97
76728;BME280;65652;53.132;18.026;2023-04-01T02:36:42;99117.95;;;10.19;79.32
76728;BME280;65652;53.132;18.026;2023-04-01T02:39:09;99123.75;;;10.15;78.86
76728;BME280;65652;53.132;18.026;2023-04-01T02:41:43;99122.37;;;10.13;79.21
76728;BME280;65652;53.132;18.026;2023-04-01T02:44:12;99125.47;;;10.13;79.15
76728;BME280;65652;53.132;18.026;2023-04-01T02:46:38;99125.61;;;10.11;79.57
76728;BME280;65652;53.132;18.026;2023-04-01T02:49:05;99125.28;;;10.09;79.47
76728;BME280;65652;53.132;18.026;2023-04-01T02:51:32;99129.98;;;10.09;79.33
76728;BME280;65652;53.132;18.026;2023-04-01T02:53:59;99130.25;;;10.09;78.99
76728;BME280;65652;53.132;18.026;2023-04-01T02:56:25;99135.86;;;10.07;79.32
76728;BME280;65652;53.132;18.026;2023-04-01T02:58:53;99136.45;;;10.03;79.19
76728;BME280;65652;53.132;18.026;2023-04-01T03:01:20;99138.52;;;10.00;79.28
76728;BME280;65652;53.132;18.026;2023-04-01T03:03:46;99140.77;;;9.98;79.50
76728;BME280;65652;53.132;18.026;2023-04-01T03:06:14;99142.23;;;9.96;79.22
76728;BME280;65652;53.132;18.026;2023-04-01T03:08:41;99142.08;;;9.94;79.51
76728;BME280;65652;53.132;18.026;2023-04-01T03:11:09;99145.97;;;9.92;79.33
76728;BME280;65652;53.132;18.026;2023-04-01T03:13:36;99145.58;;;9.91;79.48
76728;BME280;65652;53.132;18.026;2023-04-01T03:16:02;99148.51;;;9.90;79.57
76728;BME280;65652;53.132;18.026;2023-04-01T03:18:29;99148.87;;;9.90;79.66
76728;BME280;65652;53.132;18.026;2023-04-01T03:20:55;99152.02;;;9.87;79.35
76728;BME280;65652;53.132;18.026;2023-04-01T03:23:22;99153.61;;;9.82;79.26
76728;BME280;65652;53.132;18.026;2023-04-01T03:25:50;99156.48;;;9.81;79.66
76728;BME280;65652;53.132;18.026;2023-04-01T03:28:16;99154.33;;;9.79;79.69
76728;BME280;65652;53.132;18.026;2023-04-01T03:30:43;99155.69;;;9.76;79.57
76728;BME280;65652;53.132;18.026;2023-04-01T03:33:09;99156.91;;;9.73;79.86
76728;BME280;65652;53.132;18.026;2023-04-01T03:35:35;99164.88;;;9.72;79.65
76728;BME280;65652;53.132;18.026;2023-04-01T03:38:02;99158.77;;;9.66;79.71
76728;BME280;65652;53.132;18.026;2023-04-01T03:40:28;99166.52;;;9.62;79.53
76728;BME280;65652;53.132;18.026;2023-04-01T03:42:55;99170.84;;;9.58;79.72
76728;BME280;65652;53.132;18.026;2023-04-01T03:45:22;99167.50;;;9.52;80.00
76728;BME280;65652;53.132;18.026;2023-04-01T03:47:48;99171.02;;;9.47;79.71
76728;BME280;65652;53.132;18.026;2023-04-01T03:50:15;99171.35;;;9.44;79.78
76728;BME280;65652;53.132;18.026;2023-04-01T03:52:41;99174.03;;;9.40;79.96
76728;BME280;65652;53.132;18.026;2023-04-01T03:55:07;99176.64;;;9.36;79.98
76728;BME280;65652;53.132;18.026;2023-04-01T03:57:34;99181.15;;;9.32;79.86
76728;BME280;65652;53.132;18.026;2023-04-01T04:00:03;99181.90;;;9.26;80.07
76728;BME280;65652;53.132;18.026;2023-04-01T04:02:39;99180.17;;;9.19;80.02
76728;BME280;65652;53.132;18.026;2023-04-01T04:05:06;99182.23;;;9.13;80.19
76728;BME280;65652;53.132;18.026;2023-04-01T04:07:34;99185.60;;;9.08;80.19
76728;BME280;65652;53.132;18.026;2023-04-01T04:10:03;99185.02;;;9.05;80.17
76728;BME280;65652;53.132;18.026;2023-04-01T04:12:29;99190.42;;;9.02;80.27
76728;BME280;65652;53.132;18.026;2023-04-01T04:14:55;99195.63;;;8.98;80.26
76728;BME280;65652;53.132;18.026;2023-04-01T04:17:22;99202.39;;;8.96;80.12
76728;BME280;65652;53.132;18.026;2023-04-01T04:19:48;99204.91;;;8.94;80.38
76728;BME280;65652;53.132;18.026;2023-04-01T04:22:14;99208.21;;;8.92;80.41
76728;BME280;65652;53.132;18.026;2023-04-01T04:24:40;99209.62;;;8.91;80.51
76728;BME280;65652;53.132;18.026;2023-04-01T04:27:09;99206.21;;;8.90;80.43
76728;BME280;65652;53.132;18.026;2023-04-01T04:29:41;99212.92;;;8.89;80.49
76728;BME280;65652;53.132;18.026;2023-04-01T04:32:07;99215.14;;;8.87;80.45
76728;BME280;65652;53.132;18.026;2023-04-01T04:34:33;99216.26;;;8.84;80.26
76728;BME280;65652;53.132;18.026;2023-04-01T04:37:00;99222.19;;;8.82;80.42
76728;BME280;65652;53.132;18.026;2023-04-01T04:39:29;99225.80;;;8.79;80.34
76728;BME280;65652;53.132;18.026;2023-04-01T04:41:56;99228.25;;;8.74;80.49
76728;BME280;65652;53.132;18.026;2023-04-01T04:44:22;99227.89;;;8.69;80.49
76728;BME280;65652;53.132;18.026;2023-04-01T04:46:48;99231.77;;;8.64;80.67
76728;BME280;65652;53.132;18.026;2023-04-01T04:49:15;99234.21;;;8.59;80.58
76728;BME280;65652;53.132;18.026;2023-04-01T04:51:41;99234.52;;;8.55;80.68
76728;BME280;65652;53.132;18.026;2023-04-01T04:54:08;99236.04;;;8.50;80.70
76728;BME280;65652;53.132;18.026;2023-04-01T04:56:53;99243.52;;;8.46;80.80
76728;BME280;65652;53.132;18.026;2023-04-01T04:59:19;99243.63;;;8.41;80.85
76728;BME280;65652;53.132;18.026;2023-04-01T05:01:51;99246.07;;;8.36;80.96
76728;BME280;65652;53.132;18.026;2023-04-01T05:04:17;99252.91;;;8.31;80.93
76728;BME280;65652;53.132;18.026;2023-04-01T05:06:43;99255.13;;;8.27;80.98
76728;BME280;65652;53.132;18.026;2023-04-01T05:09:11;99257.98;;;8.25;80.86
76728;BME280;65652;53.132;18.026;2023-04-01T05:11:37;99259.50;;;8.22;80.96
76728;BME280;65652;53.132;18.026;2023-04-01T05:14:03;99262.10;;;8.19;80.89
76728;BME280;65652;53.132;18.026;2023-04-01T05:16:29;99262.69;;;8.18;80.92
76728;BME280;65652;53.132;18.026;2023-04-01T05:18:58;99266.23;;;8.14;81.12
76728;BME280;65652;53.132;18.026;2023-04-01T05:21:24;99269.54;;;8.13;81.00
76728;BME280;65652;53.132;18.026;2023-04-01T05:23:51;99271.20;;;8.12;81.03
76728;BME280;65652;53.132;18.026;2023-04-01T05:26:18;99273.52;;;8.10;81.08
76728;BME280;65652;53.132;18.026;2023-04-01T05:28:44;99279.48;;;8.09;81.20
76728;BME280;65652;53.132;18.026;2023-04-01T05:31:10;99280.86;;;8.07;81.00
76728;BME280;65652;53.132;18.026;2023-04-01T05:33:41;99284.88;;;8.07;81.12
76728;BME280;65652;53.132;18.026;2023-04-01T05:36:12;99284.59;;;8.10;81.25
76728;BME280;65652;53.132;18.026;2023-04-01T05:38:39;99286.74;;;8.11;81.12
76728;BME280;65652;53.132;18.026;2023-04-01T05:41:08;99284.09;;;8.12;81.05
76728;BME280;65652;53.132;18.026;2023-04-01T05:43:37;99289.39;;;8.11;81.13
76728;BME280;65652;53.132;18.026;2023-04-01T05:46:14;99289.88;;;8.08;80.89
76728;BME280;65652;53.132;18.026;2023-04-01T05:48:52;99292.66;;;8.03;81.01
76728;BME280;65652;53.132;18.026;2023-04-01T05:51:19;99297.11;;;7.97;80.84
76728;BME280;65652;53.132;18.026;2023-04-01T05:53:46;99299.55;;;7.94;80.63
76728;BME280;65652;53.132;18.026;2023-04-01T05:56:12;99303.85;;;7.93;80.83
76728;BME280;65652;53.132;18.026;2023-04-01T05:58:40;99305.66;;;7.89;80.91
76728;BME280;65652;53.132;18.026;2023-04-01T06:01:10;99308.98;;;7.88;80.87
76728;BME280;65652;53.132;18.026;2023-04-01T06:03:37;99313.92;;;7.86;80.53
76728;BME280;65652;53.132;18.026;2023-04-01T06:06:04;99316.38;;;7.84;80.71
76728;BME280;65652;53.132;18.026;2023-04-01T06:08:34;99319.83;;;7.83;80.61
76728;BME280;65652;53.132;18.026;2023-04-01T06:19:31;99325.23;;;7.96;80.39
76728;BME280;65652;53.132;18.026;2023-04-01T06:27:25;99331.29;;;7.99;80.05
76728;BME280;65652;53.132;18.026;2023-04-01T06:32:56;99337.10;;;7.93;80.02
76728;BME280;65652;53.132;18.026;2023-04-01T06:35:41;99339.77;;;7.93;80.15
76728;BME280;65652;53.132;18.026;2023-04-01T06:38:36;99340.34;;;7.94;80.15
76728;BME280;65652;53.132;18.026;2023-04-01T06:46:47;99349.88;;;7.97;79.75
76728;BME280;65652;53.132;18.026;2023-04-01T06:50:04;99356.05;;;7.99;80.05
76728;BME280;65652;53.132;18.026;2023-04-01T06:56:02;99359.16;;;8.07;80.00
76728;BME280;65652;53.132;18.026;2023-04-01T06:58:55;99360.94;;;8.10;79.79
76728;BME280;65652;53.132;18.026;2023-04-01T07:01:28;99361.04;;;8.10;79.75
76728;BME280;65652;53.132;18.026;2023-04-01T07:03:59;99366.11;;;8.12;79.68
76728;BME280;65652;53.132;18.026;2023-04-01T07:06:31;99367.93;;;8.13;79.81
76728;BME280;65652;53.132;18.026;2023-04-01T07:09:02;99370.41;;;8.14;79.62
76728;BME280;65652;53.132;18.026;2023-04-01T07:11:42;99373.25;;;8.15;79.60
76728;BME280;65652;53.132;18.026;2023-04-01T07:14:37;99376.36;;;8.14;79.46
76728;BME280;65652;53.132;18.026;2023-04-01T07:17:15;99381.50;;;8.15;79.38
76728;BME280;65652;53.132;18.026;2023-04-01T07:19:57;99385.13;;;8.16;79.34
76728;BME280;65652;53.132;18.026;2023-04-01T07:22:41;99387.64;;;8.17;79.44
76728;BME280;65652;53.132;18.026;2023-04-01T07:25:30;99390.39;;;8.18;79.25
76728;BME280;65652;53.132;18.026;2023-04-01T07:28:35;99391.35;;;8.21;79.28
76728;BME280;65652;53.132;18.026;2023-04-01T07:34:15;99391.60;;;8.29;79.40
76728;BME280;65652;53.132;18.026;2023-04-01T07:37:02;99391.31;;;8.30;79.22
76728;BME280;65652;53.132;18.026;2023-04-01T07:47:50;99411.33;;;8.30;78.91
76728;BME280;65652;53.132;18.026;2023-04-01T07:50:27;99416.39;;;8.34;78.99
76728;BME280;65652;53.132;18.026;2023-04-01T07:52:58;99419.19;;;8.38;79.09
76728;BME280;65652;53.132;18.026;2023-04-01T07:55:37;99422.47;;;8.42;78.97
76728;BME280;65652;53.132;18.026;2023-04-01T08:03:37;99433.67;;;8.44;78.57
76728;BME280;65652;53.132;18.026;2023-04-01T08:09:02;99440.89;;;8.41;79.01
76728;BME280;65652;53.132;18.026;2023-04-01T08:11:41;99447.16;;;8.54;79.56
76728;BME280;65652;53.132;18.026;2023-04-01T08:14:53;99448.02;;;8.64;78.99
76728;BME280;65652;53.132;18.026;2023-04-01T08:17:49;99453.80;;;8.82;80.11
76728;BME280;65652;53.132;18.026;2023-04-01T08:20:23;99457.40;;;9.07;79.44
76728;BME280;65652;53.132;18.026;2023-04-01T08:26:05;99466.35;;;9.01;77.33
76728;BME280;65652;53.132;18.026;2023-04-01T08:28:40;99470.90;;;8.90;77.31
76728;BME280;65652;53.132;18.026;2023-04-01T08:33:53;99472.54;;;8.78;77.39
76728;BME280;65652;53.132;18.026;2023-04-01T08:36:32;99472.17;;;8.78;77.60
76728;BME280;65652;53.132;18.026;2023-04-01T08:39:35;99475.81;;;8.82;77.73
76728;BME280;65652;53.132;18.026;2023-04-01T08:45:34;99479.40;;;8.88;77.51
76728;BME280;65652;53.132;18.026;2023-04-01T08:56:23;99493.39;;;9.00;76.90
76728;BME280;65652;53.132;18.026;2023-04-01T08:59:12;99499.58;;;9.03;76.98
76728;BME280;65652;53.132;18.026;2023-04-01T09:08:17;99508.51;;;9.11;76.36
76728;BME280;65652;53.132;18.026;2023-04-01T09:13:59;99507.10;;;9.05;75.65
76728;BME280;65652;53.132;18.026;2023-04-01T09:16:41;99509.64;;;9.03;75.66
76728;BME280;65652;53.132;18.026;2023-04-01T09:22:20;99515.42;;;9.08;75.78
76728;BME280;65652;53.132;18.026;2023-04-01T09:27:44;99518.01;;;9.12;75.80
76728;BME280;65652;53.132;18.026;2023-04-01T09:30:19;99522.58;;;9.13;75.70
76728;BME280;65652;53.132;18.026;2023-04-01T09:38:27;99532.98;;;9.23;75.72
76728;BME280;65652;53.132;18.026;2023-04-01T09:40:57;99537.13;;;9.27;75.29
76728;BME280;65652;53.132;18.026;2023-04-01T10:01:05;99555.92;;;9.52;74.69
76728;BME280;65652;53.132;18.026;2023-04-01T10:17:13;99573.05;;;9.44;74.14
76728;BME280;65652;53.132;18.026;2023-04-01T10:34:29;99581.66;;;9.36;74.78
76728;BME280;65652;53.132;18.026;2023-04-01T10:36:53;99583.17;;;9.40;74.63
76728;BME280;65652;53.132;18.026;2023-04-01T10:54:43;99587.54;;;9.68;73.61
76728;BME280;65652;53.132;18.026;2023-04-01T10:57:50;99595.80;;;9.72;73.35
76728;BME280;65652;53.132;18.026;2023-04-01T11:01:12;99593.86;;;9.74;73.44
76728;BME280;65652;53.132;18.026;2023-04-01T11:26:21;99624.84;;;9.74;72.61
76728;BME280;65652;53.132;18.026;2023-04-01T11:42:57;99653.52;;;9.52;72.49
76728;BME280;65652;53.132;18.026;2023-04-01T11:46:15;99658.92;;;9.51;72.95
76728;BME280;65652;53.132;18.026;2023-04-01T11:48:58;99659.73;;;9.58;73.04
76728;BME280;65652;53.132;18.026;2023-04-01T11:54:36;99661.96;;;9.71;72.44
76728;BME280;65652;53.132;18.026;2023-04-01T12:08:02;99671.36;;;9.90;71.45
76728;BME280;65652;53.132;18.026;2023-04-01T12:10:57;99672.88;;;9.89;71.81
76728;BME280;65652;53.132;18.026;2023-04-01T12:13:45;99680.79;;;9.87;71.78
76728;BME280;65652;53.132;18.026;2023-04-01T12:19:31;99682.59;;;9.89;71.51
76728;BME280;65652;53.132;18.026;2023-04-01T12:24:44;99692.15;;;9.82;70.81
76728;BME280;65652;53.132;18.026;2023-04-01T12:41:52;99713.59;;;9.73;71.08
76728;BME280;65652;53.132;18.026;2023-04-01T12:44:49;99714.61;;;9.76;71.40
76728;BME280;65652;53.132;18.026;2023-04-01T12:58:07;99728.27;;;9.92;69.92
76728;BME280;65652;53.132;18.026;2023-04-01T13:03:56;99736.46;;;9.97;70.15
76728;BME280;65652;53.132;18.026;2023-04-01T13:17:57;99757.70;;;10.05;69.64
76728;BME280;65652;53.132;18.026;2023-04-01T13:20:41;99757.02;;;10.10;70.63
76728;BME280;65652;53.132;18.026;2023-04-01T13:34:39;99770.45;;;10.15;69.96
76728;BME280;65652;53.132;18.026;2023-04-01T13:37:23;99770.73;;;10.13;69.38
76728;BME280;65652;53.132;18.026;2023-04-01T13:39:54;99771.72;;;10.08;68.88
76728;BME280;65652;53.132;18.026;2023-04-01T13:42:29;99777.75;;;10.00;68.42
76728;BME280;65652;53.132;18.026;2023-04-01T14:10:42;99819.89;;;9.38;68.87
76728;BME280;65652;53.132;18.026;2023-04-01T14:18:56;99830.82;;;9.16;68.94
76728;BME280;65652;53.132;18.026;2023-04-01T14:21:34;99830.53;;;9.08;69.39
76728;BME280;65652;53.132;18.026;2023-04-01T14:24:22;99834.88;;;9.03;69.31
76728;BME280;65652;53.132;18.026;2023-04-01T14:32:16;99834.27;;;8.95;69.34
76728;BME280;65652;53.132;18.026;2023-04-01T14:46:23;99859.94;;;8.71;69.30
76728;BME280;65652;53.132;18.026;2023-04-01T14:49:02;99859.63;;;8.63;69.44
76728;BME280;65652;53.132;18.026;2023-04-01T14:51:34;99861.48;;;8.56;69.65
76728;BME280;65652;53.132;18.026;2023-04-01T14:54:15;99865.02;;;8.54;69.89
76728;BME280;65652;53.132;18.026;2023-04-01T14:59:47;99873.99;;;8.49;69.67
76728;BME280;65652;53.132;18.026;2023-04-01T15:05:03;99887.70;;;8.37;69.42
76728;BME280;65652;53.132;18.026;2023-04-01T15:13:17;99904.02;;;8.30;69.66
76728;BME280;65652;53.132;18.026;2023-04-01T15:21:38;99914.90;;;8.23;69.50
76728;BME280;65652;53.132;18.026;2023-04-01T15:32:25;99935.03;;;7.96;69.90
76728;BME280;65652;53.132;18.026;2023-04-01T15:37:54;99949.76;;;7.77;70.02
76728;BME280;65652;53.132;18.026;2023-04-01T15:48:23;99961.09;;;7.56;70.35
76728;BME280;65652;53.132;18.026;2023-04-01T15:51:07;99964.48;;;7.49;70.44
76728;BME280;65652;53.132;18.026;2023-04-01T16:18:59;100011.66;;;6.95;70.88
76728;BME280;65652;53.132;18.026;2023-04-01T16:21:46;100014.55;;;6.85;70.86
76728;BME280;65652;53.132;18.026;2023-04-01T16:26:52;100025.25;;;6.75;70.88
76728;BME280;65652;53.132;18.026;2023-04-01T16:29:53;100031.48;;;6.70;70.99
76728;BME280;65652;53.132;18.026;2023-04-01T16:35:10;100042.27;;;6.65;71.10
76728;BME280;65652;53.132;18.026;2023-04-01T16:37:49;100042.67;;;6.61;71.19
76728;BME280;65652;53.132;18.026;2023-04-01T16:43:35;100055.08;;;6.47;71.35
76728;BME280;65652;53.132;18.026;2023-04-01T16:46:31;100061.21;;;6.41;71.43
76728;BME280;65652;53.132;18.026;2023-04-01T16:51:52;100070.71;;;6.32;71.98
76728;BME280;65652;53.132;18.026;2023-04-01T16:56:54;100076.55;;;6.25;72.18
76728;BME280;65652;53.132;18.026;2023-04-01T17:14:54;100103.27;;;5.99;71.94
76728;BME280;65652;53.132;18.026;2023-04-01T17:21:09;100110.23;;;5.93;71.71
76728;BME280;65652;53.132;18.026;2023-04-01T17:23:49;100114.66;;;5.93;71.92
76728;BME280;65652;53.132;18.026;2023-04-01T17:26:32;100119.37;;;5.93;71.56
76728;BME280;65652;53.132;18.026;2023-04-01T17:31:46;100128.19;;;5.86;71.61
76728;BME280;65652;53.132;18.026;2023-04-01T17:42:46;100146.58;;;5.69;71.73
76728;BME280;65652;53.132;18.026;2023-04-01T17:45:23;100158.55;;;5.66;71.92
76728;BME280;65652;53.132;18.026;2023-04-01T17:48:06;100159.70;;;5.65;72.13
76728;BME280;65652;53.132;18.026;2023-04-01T17:58:45;100185.92;;;5.56;72.69
76728;BME280;65652;53.132;18.026;2023-04-01T18:04:07;100187.89;;;5.51;73.03
76728;BME280;65652;53.132;18.026;2023-04-01T18:20:54;100218.27;;;5.27;74.30
76728;BME280;65652;53.132;18.026;2023-04-01T18:23:56;100223.82;;;5.20;74.25
76728;BME280;65652;53.132;18.026;2023-04-01T18:26:36;100225.59;;;5.13;74.34
76728;BME280;65652;53.132;18.026;2023-04-01T18:31:51;100232.95;;;5.03;74.54
76728;BME280;65652;53.132;18.026;2023-04-01T18:37:34;100242.65;;;5.02;74.60
76728;BME280;65652;53.132;18.026;2023-04-01T18:45:58;100251.25;;;4.94;75.05
76728;BME280;65652;53.132;18.026;2023-04-01T18:48:46;100253.73;;;4.96;75.35
76728;BME280;65652;53.132;18.026;2023-04-01T18:54:43;100263.18;;;4.89;75.34
76728;BME280;65652;53.132;18.026;2023-04-01T18:57:13;100268.76;;;4.89;75.51
76728;BME280;65652;53.132;18.026;2023-04-01T19:02:32;100275.01;;;4.90;75.52
76728;BME280;65652;53.132;18.026;2023-04-01T19:10:14;100281.55;;;4.84;75.68
76728;BME280;65652;53.132;18.026;2023-04-01T19:15:39;100292.68;;;4.80;76.13
76728;BME280;65652;53.132;18.026;2023-04-01T19:26:46;100304.30;;;4.66;76.36
76728;BME280;65652;53.132;18.026;2023-04-01T19:40:48;100322.95;;;4.52;76.33
76728;BME280;65652;53.132;18.026;2023-04-01T19:43:39;100332.09;;;4.52;76.69
76728;BME280;65652;53.132;18.026;2023-04-01T19:46:41;100335.08;;;4.49;77.15
76728;BME280;65652;53.132;18.026;2023-04-01T19:52:43;100343.33;;;4.44;76.98
76728;BME280;65652;53.132;18.026;2023-04-01T20:00:26;100350.19;;;4.33;77.05
76728;BME280;65652;53.132;18.026;2023-04-01T20:08:13;100358.87;;;4.26;77.41
76728;BME280;65652;53.132;18.026;2023-04-01T20:15:47;100372.61;;;4.22;77.38
76728;BME280;65652;53.132;18.026;2023-04-01T20:18:25;100379.23;;;4.22;77.34
76728;BME280;65652;53.132;18.026;2023-04-01T20:24:01;100385.73;;;4.21;77.47
76728;BME280;65652;53.132;18.026;2023-04-01T20:26:35;100390.57;;;4.22;77.39
76728;BME280;65652;53.132;18.026;2023-04-01T20:29:12;100390.59;;;4.22;77.30
76728;BME280;65652;53.132;18.026;2023-04-01T20:31:43;100396.30;;;4.22;77.59
76728;BME280;65652;53.132;18.026;2023-04-01T20:37:44;100399.17;;;4.21;77.65
76728;BME280;65652;53.132;18.026;2023-04-01T20:40:26;100396.12;;;4.20;77.66
76728;BME280;65652;53.132;18.026;2023-04-01T20:51:15;100409.11;;;4.16;77.40
76728;BME280;65652;53.132;18.026;2023-04-01T20:53:58;100408.16;;;4.17;77.45
76728;BME280;65652;53.132;18.026;2023-04-01T20:56:38;100408.58;;;4.17;77.23
76728;BME280;65652;53.132;18.026;2023-04-01T20:59:41;100410.38;;;4.16;77.18
76728;BME280;65652;53.132;18.026;2023-04-01T21:24:35;100438.56;;;4.18;77.02
76728;BME280;65652;53.132;18.026;2023-04-01T21:32:52;100446.97;;;4.28;76.70
76728;BME280;65652;53.132;18.026;2023-04-01T21:43:45;100452.48;;;4.32;76.88
76728;BME280;65652;53.132;18.026;2023-04-01T22:00:53;100462.69;;;4.25;76.96
76728;BME280;65652;53.132;18.026;2023-04-01T22:03:59;100468.91;;;4.24;76.71
76728;BME280;65652;53.132;18.026;2023-04-01T22:06:38;100469.81;;;4.24;76.89
76728;BME280;65652;53.132;18.026;2023-04-01T22:11:55;100471.62;;;4.20;76.80
76728;BME280;65652;53.132;18.026;2023-04-01T22:14:36;100473.09;;;4.19;76.96
76728;BME280;65652;53.132;18.026;2023-04-01T22:20:25;100476.77;;;4.16;77.03
76728;BME280;65652;53.132;18.026;2023-04-01T22:23:19;100479.96;;;4.15;77.05
76728;BME280;65652;53.132;18.026;2023-04-01T22:31:06;100489.27;;;4.15;76.97
76728;BME280;65652;53.132;18.026;2023-04-01T22:41:38;100496.39;;;4.18;77.08
76728;BME280;65652;53.132;18.026;2023-04-01T22:47:04;100499.83;;;4.21;76.96
76728;BME280;65652;53.132;18.026;2023-04-01T22:49:39;100502.41;;;4.22;76.92
76728;BME280;65652;53.132;18.026;2023-04-01T22:52:20;100507.54;;;4.21;76.90
76728;BME280;65652;53.132;18.026;2023-04-01T22:54:53;100511.50;;;4.22;76.56
76728;BME280;65652;53.132;18.026;2023-04-01T23:00:26;100516.52;;;4.23;76.74
76728;BME280;65652;53.132;18.026;2023-04-01T23:05:59;100519.70;;;4.28;76.57
76728;BME280;65652;53.132;18.026;2023-04-01T23:10:54;100526.56;;;4.35;76.53
76728;BME280;65652;53.132;18.026;2023-04-01T23:13:27;100529.29;;;4.36;76.69
76728;BME280;65652;53.132;18.026;2023-04-01T23:15:56;100531.41;;;4.36;76.65
76728;BME280;65652;53.132;18.026;2023-04-01T23:18:32;100535.55;;;4.36;76.30
76728;BME280;65652;53.132;18.026;2023-04-01T23:21:06;100535.44;;;4.35;76.42
76728;BME280;65652;53.132;18.026;2023-04-01T23:26:15;100540.72;;;4.32;76.21
76728;BME280;65652;53.132;18.026;2023-04-01T23:28:55;100542.15;;;4.34;76.36
76728;BME280;65652;53.132;18.026;2023-04-01T23:31:38;100541.42;;;4.35;76.13
76728;BME280;65652;53.132;18.026;2023-04-01T23:36:43;100552.73;;;4.36;76.05
76728;BME280;65652;53.132;18.026;2023-04-01T23:41:48;100560.69;;;4.37;75.94
76728;BME280;65652;53.132;18.026;2023-04-01T23:44:15;100564.50;;;4.38;76.01
76728;BME280;65652;53.132;18.026;2023-04-01T23:46:44;100564.26;;;4.36;75.94